Time,TemperatureF,DewpointF,PressureIn,WindDirection,WindDirectionDegrees,WindSpeedMPH,WindSpeedGustMPH,Humidity,HourlyPrecipIn,Conditions,Clouds,dailyrainin,SolarRadiationWatts/m^2,SoftwareType,DateUTC
2013-04-14 00:03:00,51.0,27.0,-100.00,SE,146,3.0,10.0,39,0.00,,,0.00,0.000000,,2013-04-14 04:03:00,
2013-04-14 00:33:00,44.0,31.0,-100.00,South,191,0.0,3.0,61,0.00,,,0.00,0.000000,,2013-04-14 04:33:00,
2013-04-14 00:43:00,44.0,31.0,-100.00,South,191,0.0,3.0,61,0.00,,,0.00,0.000000,,2013-04-14 04:43:00,
2013-04-14 00:53:00,44.0,31.0,-100.00,South,191,0.0,3.0,61,0.00,,,0.00,0.000000,,2013-04-14 04:53:00,
2013-04-14 01:03:00,44.0,31.0,-100.00,South,191,0.0,3.0,61,0.00,,,0.00,0.000000,,2013-04-14 05:03:00,
2013-04-14 01:23:00,42.0,33.0,-100.00,ENE,62,2.0,3.0,69,0.00,,,0.00,0.000000,,2013-04-14 05:23:00,
2013-04-14 01:32:00,42.0,33.0,-100.00,ENE,62,2.0,3.0,69,0.00,,,0.00,0.000000,,2013-04-14 05:32:00,
2013-04-14 01:42:00,42.0,33.0,-100.00,ENE,62,2.0,3.0,69,0.00,,,0.00,0.000000,,2013-04-14 05:42:00,
2013-04-14 01:53:00,42.0,33.0,-100.00,ENE,62,2.0,3.0,69,0.00,,,0.00,0.000000,,2013-04-14 05:53:00,
2013-04-14 02:02:00,42.0,33.0,-100.00,ENE,62,2.0,3.0,69,0.00,,,0.00,0.000000,,2013-04-14 06:02:00,
2013-04-14 02:22:00,39.0,31.0,-100.00,NE,47,2.0,3.0,74,0.00,,,0.00,0.000000,,2013-04-14 06:22:00,
2013-04-14 02:32:00,39.0,31.0,-100.00,NE,47,2.0,3.0,74,0.00,,,0.00,0.000000,,2013-04-14 06:32:00,
2013-04-14 02:42:00,39.0,31.0,-100.00,NE,47,2.0,3.0,74,0.00,,,0.00,0.000000,,2013-04-14 06:42:00,
2013-04-14 02:53:00,39.0,31.0,-100.00,NE,47,2.0,3.0,74,0.00,,,0.00,0.000000,,2013-04-14 06:53:00,
2013-04-14 03:02:00,39.0,31.0,-100.00,NE,47,2.0,3.0,74,0.00,,,0.00,0.000000,,2013-04-14 07:02:00,
2013-04-14 03:33:00,37.0,31.0,-100.00,ENE,78,2.0,3.0,79,0.00,,,0.00,0.000000,,2013-04-14 07:33:00,
2013-04-14 03:42:00,37.0,31.0,-100.00,ENE,78,2.0,3.0,79,0.00,,,0.00,0.000000,,2013-04-14 07:42:00,
2013-04-14 03:52:00,37.0,31.0,-100.00,ENE,78,2.0,3.0,79,0.00,,,0.00,0.000000,,2013-04-14 07:52:00,
2013-04-14 04:03:00,37.0,31.0,-100.00,ENE,78,2.0,3.0,79,0.00,,,0.00,0.000000,,2013-04-14 08:03:00,
2013-04-14 04:33:00,36.0,31.0,-100.00,ENE,66,2.0,3.0,83,0.00,,,0.00,0.000000,,2013-04-14 08:33:00,
2013-04-14 04:43:00,36.0,31.0,-100.00,ENE,66,2.0,3.0,83,0.00,,,0.00,0.000000,,2013-04-14 08:43:00,
2013-04-14 04:52:00,36.0,31.0,-100.00,ENE,66,2.0,3.0,83,0.00,,,0.00,0.000000,,2013-04-14 08:52:00,
2013-04-14 05:03:00,36.0,31.0,-100.00,ENE,66,2.0,3.0,83,0.00,,,0.00,0.000000,,2013-04-14 09:03:00,
2013-04-14 05:22:00,35.0,31.0,-100.00,ENE,73,1.0,3.0,85,0.00,,,0.00,0.000000,,2013-04-14 09:22:00,
2013-04-14 05:33:00,35.0,31.0,-100.00,ENE,73,1.0,3.0,85,0.00,,,0.00,0.000000,,2013-04-14 09:33:00,
2013-04-14 05:43:00,35.0,31.0,-100.00,ENE,73,1.0,3.0,85,0.00,,,0.00,0.000000,,2013-04-14 09:43:00,
2013-04-14 05:54:00,35.0,31.0,-100.00,ENE,73,1.0,3.0,85,0.00,,,0.00,0.000000,,2013-04-14 09:54:00,
2013-04-14 06:03:00,35.0,31.0,-100.00,ENE,73,1.0,3.0,85,0.00,,,0.00,0.000000,,2013-04-14 10:03:00,
2013-04-14 06:23:00,34.0,31.0,-100.00,ENE,58,2.0,3.0,88,0.00,,,0.00,0.000000,,2013-04-14 10:23:00,
2013-04-14 06:33:00,34.0,31.0,-100.00,ENE,58,2.0,3.0,88,0.00,,,0.00,0.000000,,2013-04-14 10:33:00,
2013-04-14 06:43:00,34.0,31.0,-100.00,ENE,58,2.0,3.0,88,0.00,,,0.00,0.000000,,2013-04-14 10:43:00,
2013-04-14 06:53:00,34.0,31.0,-100.00,ENE,58,2.0,3.0,88,0.00,,,0.00,0.000000,,2013-04-14 10:53:00,
2013-04-14 07:02:00,34.0,31.0,-100.00,ENE,58,2.0,3.0,88,0.00,,,0.00,0.000000,,2013-04-14 11:02:00,
2013-04-14 07:33:00,34.0,31.0,-100.00,ENE,59,1.0,3.0,89,0.00,,,0.00,1.000000,,2013-04-14 11:33:00,
2013-04-14 07:42:00,34.0,31.0,-100.00,ENE,59,1.0,3.0,89,0.00,,,0.00,1.000000,,2013-04-14 11:42:00,
2013-04-14 07:53:00,34.0,31.0,-100.00,ENE,59,1.0,3.0,89,0.00,,,0.00,1.000000,,2013-04-14 11:53:00,
2013-04-14 08:02:00,34.0,31.0,-100.00,ENE,59,1.0,3.0,89,0.00,,,0.00,1.000000,,2013-04-14 12:02:00,
2013-04-14 08:22:00,38.0,34.0,-100.00,ENE,69,2.0,3.0,87,0.00,,,0.00,39.000000,,2013-04-14 12:22:00,
2013-04-14 08:32:00,38.0,34.0,-100.00,ENE,69,2.0,3.0,87,0.00,,,0.00,39.000000,,2013-04-14 12:32:00,
2013-04-14 08:42:00,38.0,34.0,-100.00,ENE,69,2.0,3.0,87,0.00,,,0.00,39.000000,,2013-04-14 12:42:00,
2013-04-14 08:52:00,38.0,34.0,-100.00,ENE,69,2.0,3.0,87,0.00,,,0.00,39.000000,,2013-04-14 12:52:00,
2013-04-14 09:02:00,38.0,34.0,-100.00,ENE,69,2.0,3.0,87,0.00,,,0.00,39.000000,,2013-04-14 13:02:00,
2013-04-14 09:33:00,53.0,42.0,-100.00,ENE,62,2.0,4.0,65,0.00,,,0.00,85.000000,,2013-04-14 13:33:00,
2013-04-14 09:43:00,53.0,42.0,-100.00,ENE,62,2.0,4.0,65,0.00,,,0.00,85.000000,,2013-04-14 13:43:00,
2013-04-14 09:52:00,53.0,42.0,-100.00,ENE,62,2.0,4.0,65,0.00,,,0.00,85.000000,,2013-04-14 13:52:00,
2013-04-14 10:02:00,53.0,42.0,-100.00,ENE,62,2.0,4.0,65,0.00,,,0.00,85.000000,,2013-04-14 14:02:00,
2013-04-14 10:32:00,63.0,33.0,-100.00,South,190,4.0,7.0,32,0.00,,,0.00,277.000000,,2013-04-14 14:32:00,
2013-04-14 10:42:00,63.0,33.0,-100.00,South,190,4.0,7.0,32,0.00,,,0.00,277.000000,,2013-04-14 14:42:00,
2013-04-14 10:53:00,63.0,33.0,-100.00,South,190,4.0,7.0,32,0.00,,,0.00,277.000000,,2013-04-14 14:53:00,
2013-04-14 11:03:00,63.0,33.0,-100.00,South,190,4.0,7.0,32,0.00,,,0.00,277.000000,,2013-04-14 15:03:00,
2013-04-14 11:04:00,63.0,32.0,-100.00,WSW,242,7.0,12.0,31,0.00,,,0.00,483.000000,,2013-04-14 15:04:00,
2013-04-14 11:34:00,63.0,32.0,-100.00,WSW,242,7.0,12.0,31,0.00,,,0.00,483.000000,,2013-04-14 15:34:00,
2013-04-14 11:44:00,63.0,32.0,-100.00,WSW,242,7.0,12.0,31,0.00,,,0.00,483.000000,,2013-04-14 15:44:00,
2013-04-14 11:53:00,63.0,32.0,-100.00,WSW,242,7.0,12.0,31,0.00,,,0.00,483.000000,,2013-04-14 15:53:00,
2013-04-14 12:23:00,65.0,34.0,-100.00,SW,224,6.0,14.0,31,0.00,,,0.00,504.000000,,2013-04-14 16:23:00,
2013-04-14 12:33:00,65.0,34.0,-100.00,SW,224,6.0,14.0,31,0.00,,,0.00,504.000000,,2013-04-14 16:33:00,
2013-04-14 12:43:00,65.0,34.0,-100.00,SW,224,6.0,14.0,31,0.00,,,0.00,504.000000,,2013-04-14 16:43:00,
2013-04-14 12:53:00,65.0,34.0,-100.00,SW,224,6.0,14.0,31,0.00,,,0.00,504.000000,,2013-04-14 16:53:00,
2013-04-14 13:02:00,65.0,34.0,-100.00,SW,224,6.0,14.0,31,0.00,,,0.00,504.000000,,2013-04-14 17:02:00,
2013-04-14 13:23:00,65.0,33.0,-100.00,SSW,206,5.0,16.0,30,0.00,,,0.00,443.000000,,2013-04-14 17:23:00,
2013-04-14 13:33:00,65.0,33.0,-100.00,SSW,206,5.0,16.0,30,0.00,,,0.00,443.000000,,2013-04-14 17:33:00,
2013-04-14 13:43:00,65.0,33.0,-100.00,SSW,206,5.0,16.0,30,0.00,,,0.00,443.000000,,2013-04-14 17:43:00,
2013-04-14 13:53:00,65.0,33.0,-100.00,SSW,206,5.0,16.0,30,0.00,,,0.00,443.000000,,2013-04-14 17:53:00,
2013-04-14 14:03:00,65.0,33.0,-100.00,SSW,206,5.0,16.0,30,0.00,,,0.00,443.000000,,2013-04-14 18:03:00,
2013-04-14 14:04:00,62.0,32.0,-100.00,South,176,6.0,14.0,32,0.00,,,0.00,316.000000,,2013-04-14 18:04:00,
2013-04-14 14:22:00,62.0,32.0,-100.00,South,176,6.0,14.0,32,0.00,,,0.00,316.000000,,2013-04-14 18:22:00,
2013-04-14 14:33:00,62.0,32.0,-100.00,South,176,6.0,14.0,32,0.00,,,0.00,316.000000,,2013-04-14 18:33:00,
2013-04-14 14:43:00,62.0,32.0,-100.00,South,176,6.0,14.0,32,0.00,,,0.00,316.000000,,2013-04-14 18:43:00,
2013-04-14 14:54:00,62.0,32.0,-100.00,South,176,6.0,14.0,32,0.00,,,0.00,316.000000,,2013-04-14 18:54:00,
2013-04-14 15:33:00,61.0,35.0,-100.00,SW,219,6.0,14.0,37,0.00,,,0.00,209.000000,,2013-04-14 19:33:00,
2013-04-14 15:43:00,61.0,35.0,-100.00,SW,219,6.0,14.0,37,0.00,,,0.00,209.000000,,2013-04-14 19:43:00,
2013-04-14 15:53:00,61.0,35.0,-100.00,SW,219,6.0,14.0,37,0.00,,,0.00,209.000000,,2013-04-14 19:53:00,
2013-04-14 16:03:00,61.0,35.0,-100.00,SW,219,6.0,14.0,37,0.00,,,0.00,209.000000,,2013-04-14 20:03:00,
2013-04-14 16:33:00,59.0,36.0,-100.00,SW,233,7.0,18.0,42,0.00,,,0.00,163.000000,,2013-04-14 20:33:00,
2013-04-14 16:43:00,59.0,36.0,-100.00,SW,233,7.0,18.0,42,0.00,,,0.00,163.000000,,2013-04-14 20:43:00,
2013-04-14 16:53:00,59.0,36.0,-100.00,SW,233,7.0,18.0,42,0.00,,,0.00,163.000000,,2013-04-14 20:53:00,
2013-04-14 17:02:00,59.0,36.0,-100.00,SW,233,7.0,18.0,42,0.00,,,0.00,163.000000,,2013-04-14 21:02:00,
2013-04-14 17:33:00,59.0,37.0,-100.00,South,171,4.0,14.0,43,0.00,,,0.00,108.000000,,2013-04-14 21:33:00,
2013-04-14 17:43:00,59.0,37.0,-100.00,South,171,4.0,14.0,43,0.00,,,0.00,108.000000,,2013-04-14 21:43:00,
2013-04-14 17:53:00,59.0,37.0,-100.00,South,171,4.0,14.0,43,0.00,,,0.00,108.000000,,2013-04-14 21:53:00,
2013-04-14 18:03:00,59.0,37.0,-100.00,South,171,4.0,14.0,43,0.00,,,0.00,108.000000,,2013-04-14 22:03:00,
2013-04-14 18:33:00,57.0,35.0,-100.00,SW,230,7.0,23.0,44,0.00,,,0.00,90.000000,,2013-04-14 22:33:00,
2013-04-14 18:44:00,57.0,35.0,-100.00,SW,230,7.0,23.0,44,0.00,,,0.00,90.000000,,2013-04-14 22:44:00,
2013-04-14 18:53:00,57.0,35.0,-100.00,SW,230,7.0,23.0,44,0.00,,,0.00,90.000000,,2013-04-14 22:53:00,
2013-04-14 19:02:00,57.0,35.0,-100.00,SW,230,7.0,23.0,44,0.00,,,0.00,90.000000,,2013-04-14 23:02:00,
2013-04-14 19:23:00,54.0,39.0,-100.00,WSW,240,4.0,12.0,56,0.00,,,0.00,42.000000,,2013-04-14 23:23:00,
2013-04-14 19:33:00,54.0,39.0,-100.00,WSW,240,4.0,12.0,56,0.00,,,0.00,42.000000,,2013-04-14 23:33:00,
2013-04-14 19:43:00,54.0,39.0,-100.00,WSW,240,4.0,12.0,56,0.00,,,0.00,42.000000,,2013-04-14 23:43:00,
2013-04-14 19:53:00,54.0,39.0,-100.00,WSW,240,4.0,12.0,56,0.00,,,0.00,42.000000,,2013-04-14 23:53:00,
2013-04-14 20:02:00,54.0,39.0,-100.00,WSW,240,4.0,12.0,56,0.00,,,0.00,42.000000,,2013-04-15 00:02:00,
2013-04-14 20:23:00,52.0,43.0,-100.00,WSW,240,5.0,14.0,70,0.00,,,0.00,5.000000,,2013-04-15 00:23:00,
2013-04-14 20:33:00,52.0,43.0,-100.00,WSW,240,5.0,14.0,70,0.00,,,0.00,5.000000,,2013-04-15 00:33:00,
2013-04-14 20:43:00,52.0,43.0,-100.00,WSW,240,5.0,14.0,70,0.00,,,0.00,5.000000,,2013-04-15 00:43:00,
2013-04-14 20:53:00,52.0,43.0,-100.00,WSW,240,5.0,14.0,70,0.00,,,0.00,5.000000,,2013-04-15 00:53:00,
2013-04-14 21:02:00,52.0,43.0,-100.00,WSW,240,5.0,14.0,70,0.00,,,0.00,5.000000,,2013-04-15 01:02:00,
2013-04-14 21:33:00,51.0,43.0,-100.00,SW,215,6.0,12.0,75,0.00,,,0.00,0.000000,,2013-04-15 01:33:00,
2013-04-14 21:43:00,51.0,43.0,-100.00,SW,215,6.0,12.0,75,0.00,,,0.00,0.000000,,2013-04-15 01:43:00,
2013-04-14 21:52:00,51.0,43.0,-100.00,SW,215,6.0,12.0,75,0.00,,,0.00,0.000000,,2013-04-15 01:52:00,
2013-04-14 22:03:00,51.0,43.0,-100.00,SW,215,6.0,12.0,75,0.00,,,0.00,0.000000,,2013-04-15 02:03:00,
2013-04-14 22:32:00,48.0,46.0,-100.00,SW,236,2.0,9.0,92,0.01,,,0.01,0.000000,,2013-04-15 02:32:00,
2013-04-14 22:42:00,48.0,46.0,-100.00,SW,236,2.0,9.0,92,0.01,,,0.01,0.000000,,2013-04-15 02:42:00,
2013-04-14 22:53:00,48.0,46.0,-100.00,SW,236,2.0,9.0,92,0.01,,,0.01,0.000000,,2013-04-15 02:53:00,
2013-04-14 23:03:00,48.0,46.0,-100.00,SW,236,2.0,9.0,92,0.01,,,0.01,0.000000,,2013-04-15 03:03:00,
2013-04-14 23:33:00,48.0,47.0,-100.00,South,183,2.0,4.0,96,0.09,,,0.10,0.000000,,2013-04-15 03:33:00,
2013-04-14 23:43:00,48.0,47.0,-100.00,South,183,2.0,4.0,96,0.09,,,0.10,0.000000,,2013-04-15 03:43:00,
2013-04-14 23:55:00,48.0,47.0,-100.00,South,183,2.0,4.0,96,0.09,,,0.10,0.000000,,2013-04-15 03:55:00,